sensor_id;sensor_type;location;lat;lon;timestamp;pressure;altitude;pressure_sealevel;temperature;humidity
16544;BME280;8384;47.996;7.786;2024-01-25T00:01:09;100184.78;;;9.56;100.00
16544;BME280;8384;47.996;7.786;2024-01-25T00:03:35;100195.31;;;9.46;100.00
16544;BME280;8384;47.996;7.786;2024-01-25T00:06:00;100195.75;;;9.50;100.00
16544;BME280;8384;47.996;7.786;2024-01-25T00:08:26;100194.69;;;9.51;100.00
16544;BME280;8384;47.996;7.786;2024-01-25T00:10:51;100190.22;;;9.56;100.00
16544;BME280;8384;47.996;7.786;2024-01-25T00:13:16;100176.59;;;9.56;100.00
16544;BME280;8384;47.996;7.786;2024-01-25T00:15:42;100179.50;;;9.55;100.00
16544;BME280;8384;47.996;7.786;2024-01-25T00:18:07;100143.91;;;9.43;100.00
16544;BME280;8384;47.996;7.786;2024-01-25T00:20:32;100177.16;;;9.65;100.00
16544;BME280;8384;47.996;7.786;2024-01-25T00:22:57;100176.78;;;9.55;100.00
16544;BME280;8384;47.996;7.786;2024-01-25T00:25:23;100185.47;;;9.45;100.00
16544;BME280;8384;47.996;7.786;2024-01-25T00:27:49;100185.78;;;9.62;100.00
16544;BME280;8384;47.996;7.786;2024-01-25T00:30:14;100194.16;;;9.67;100.00
16544;BME280;8384;47.996;7.786;2024-01-25T00:32:39;100170.03;;;9.64;100.00
16544;BME280;8384;47.996;7.786;2024-01-25T00:35:05;100163.94;;;9.62;100.00
16544;BME280;8384;47.996;7.786;2024-01-25T00:37:31;100144.75;;;9.43;100.00
16544;BME280;8384;47.996;7.786;2024-01-25T00:39:56;100166.28;;;9.58;100.00
16544;BME280;8384;47.996;7.786;2024-01-25T00:42:22;100140.59;;;9.34;100.00
16544;BME280;8384;47.996;7.786;2024-01-25T00:44:51;100178.47;;;9.56;100.00
16544;BME280;8384;47.996;7.786;2024-01-25T00:47:16;100186.25;;;9.52;100.00
16544;BME280;8384;47.996;7.786;2024-01-25T00:49:42;100167.59;;;9.49;100.00
16544;BME280;8384;47.996;7.786;2024-01-25T00:52:08;100175.72;;;9.63;100.00
16544;BME280;8384;47.996;7.786;2024-01-25T00:54:34;100170.88;;;9.65;100.00
16544;BME280;8384;47.996;7.786;2024-01-25T00:56:59;100146.00;;;9.41;100.00
16544;BME280;8384;47.996;7.786;2024-01-25T00:59:25;100171.19;;;9.50;100.00
16544;BME280;8384;47.996;7.786;2024-01-25T01:01:52;100177.03;;;9.53;100.00
16544;BME280;8384;47.996;7.786;2024-01-25T01:04:18;100175.72;;;9.56;100.00
16544;BME280;8384;47.996;7.786;2024-01-25T01:06:44;100179.09;;;9.58;100.00
16544;BME280;8384;47.996;7.786;2024-01-25T01:09:09;100167.41;;;9.76;100.00
16544;BME280;8384;47.996;7.786;2024-01-25T01:11:36;100167.28;;;9.64;100.00
16544;BME280;8384;47.996;7.786;2024-01-25T01:14:01;100182.09;;;9.43;100.00
16544;BME280;8384;47.996;7.786;2024-01-25T01:16:27;100172.91;;;9.37;100.00
16544;BME280;8384;47.996;7.786;2024-01-25T01:18:52;100160.28;;;9.43;100.00
16544;BME280;8384;47.996;7.786;2024-01-25T01:21:18;100159.97;;;9.58;100.00
16544;BME280;8384;47.996;7.786;2024-01-25T01:23:43;100167.44;;;9.37;100.00
16544;BME280;8384;47.996;7.786;2024-01-25T01:26:08;100163.28;;;9.28;100.00
16544;BME280;8384;47.996;7.786;2024-01-25T01:28:33;100169.63;;;9.22;100.00
16544;BME280;8384;47.996;7.786;2024-01-25T01:30:59;100173.84;;;9.18;100.00
16544;BME280;8384;47.996;7.786;2024-01-25T01:33:24;100164.53;;;9.32;100.00
16544;BME280;8384;47.996;7.786;2024-01-25T01:35:49;100153.75;;;9.44;100.00
16544;BME280;8384;47.996;7.786;2024-01-25T01:38:15;100154.47;;;9.33;100.00
16544;BME280;8384;47.996;7.786;2024-01-25T01:40:40;100161.19;;;9.30;100.00
16544;BME280;8384;47.996;7.786;2024-01-25T01:43:05;100139.47;;;9.10;100.00
16544;BME280;8384;47.996;7.786;2024-01-25T01:45:30;100167.09;;;9.27;100.00
16544;BME280;8384;47.996;7.786;2024-01-25T01:47:56;100180.47;;;9.35;100.00
16544;BME280;8384;47.996;7.786;2024-01-25T01:50:22;100158.00;;;9.40;100.00
16544;BME280;8384;47.996;7.786;2024-01-25T01:52:49;100171.66;;;9.33;100.00
16544;BME280;8384;47.996;7.786;2024-01-25T01:55:14;100175.44;;;9.32;100.00
16544;BME280;8384;47.996;7.786;2024-01-25T01:57:40;100174.19;;;9.35;100.00
16544;BME280;8384;47.996;7.786;2024-01-25T02:00:08;100171.47;;;9.28;100.00
16544;BME280;8384;47.996;7.786;2024-01-25T02:02:34;100166.81;;;9.35;100.00
16544;BME280;8384;47.996;7.786;2024-01-25T02:04:59;100170.19;;;9.37;100.00
16544;BME280;8384;47.996;7.786;2024-01-25T02:07:25;100166.44;;;9.32;100.00
16544;BME280;8384;47.996;7.786;2024-01-25T02:09:50;100164.25;;;9.02;100.00
16544;BME280;8384;47.996;7.786;2024-01-25T02:12:16;100157.53;;;9.04;100.00
16544;BME280;8384;47.996;7.786;2024-01-25T02:14:43;100161.94;;;9.12;100.00
16544;BME280;8384;47.996;7.786;2024-01-25T02:17:09;100150.72;;;9.27;100.00
16544;BME280;8384;47.996;7.786;2024-01-25T02:19:34;100150.69;;;9.34;100.00
16544;BME280;8384;47.996;7.786;2024-01-25T02:22:01;100127.22;;;9.26;100.00
16544;BME280;8384;47.996;7.786;2024-01-25T02:24:29;100139.50;;;9.42;100.00
16544;BME280;8384;47.996;7.786;2024-01-25T02:26:55;100148.97;;;9.39;100.00
16544;BME280;8384;47.996;7.786;2024-01-25T02:29:20;100141.94;;;9.18;100.00
16544;BME280;8384;47.996;7.786;2024-01-25T02:31:45;100152.94;;;9.05;100.00
16544;BME280;8384;47.996;7.786;2024-01-25T02:34:11;100103.75;;;8.73;100.00
16544;BME280;8384;47.996;7.786;2024-01-25T02:36:36;100155.47;;;8.99;100.00
16544;BME280;8384;47.996;7.786;2024-01-25T02:39:01;100169.94;;;8.93;100.00
16544;BME280;8384;47.996;7.786;2024-01-25T02:41:29;100163.41;;;9.01;100.00
16544;BME280;8384;47.996;7.786;2024-01-25T02:43:54;100159.22;;;9.05;100.00
16544;BME280;8384;47.996;7.786;2024-01-25T02:46:19;100156.47;;;9.12;100.00
16544;BME280;8384;47.996;7.786;2024-01-25T02:48:45;100155.63;;;9.11;100.00
16544;BME280;8384;47.996;7.786;2024-01-25T02:51:10;100144.97;;;8.96;100.00
16544;BME280;8384;47.996;7.786;2024-01-25T02:53:35;100141.16;;;9.04;100.00
16544;BME280;8384;47.996;7.786;2024-01-25T02:56:01;100154.81;;;9.04;100.00
16544;BME280;8384;47.996;7.786;2024-01-25T02:58:26;100145.78;;;9.04;100.00
16544;BME280;8384;47.996;7.786;2024-01-25T03:00:51;100082.22;;;8.58;100.00
16544;BME280;8384;47.996;7.786;2024-01-25T03:03:16;100164.25;;;9.02;100.00
16544;BME280;8384;47.996;7.786;2024-01-25T03:05:41;100165.97;;;8.96;100.00
16544;BME280;8384;47.996;7.786;2024-01-25T03:08:07;100152.72;;;8.99;100.00
16544;BME280;8384;47.996;7.786;2024-01-25T03:10:32;100153.16;;;8.96;100.00
16544;BME280;8384;47.996;7.786;2024-01-25T03:12:57;100160.03;;;9.12;100.00
16544;BME280;8384;47.996;7.786;2024-01-25T03:15:23;100173.72;;;9.44;100.00
16544;BME280;8384;47.996;7.786;2024-01-25T03:17:48;100159.06;;;9.32;100.00
16544;BME280;8384;47.996;7.786;2024-01-25T03:20:13;100162.78;;;9.06;100.00
16544;BME280;8384;47.996;7.786;2024-01-25T03:22:38;100157.38;;;8.99;100.00
16544;BME280;8384;47.996;7.786;2024-01-25T03:25:04;100126.56;;;8.92;100.00
16544;BME280;8384;47.996;7.786;2024-01-25T03:27:29;100165.88;;;9.16;100.00
16544;BME280;8384;47.996;7.786;2024-01-25T03:29:54;100156.72;;;9.04;100.00
16544;BME280;8384;47.996;7.786;2024-01-25T03:32:20;100156.31;;;8.93;100.00
16544;BME280;8384;47.996;7.786;2024-01-25T03:34:45;100164.88;;;9.04;100.00
16544;BME280;8384;47.996;7.786;2024-01-25T03:37:10;100167.88;;;9.34;100.00
16544;BME280;8384;47.996;7.786;2024-01-25T03:39:36;100168.13;;;9.33;100.00
16544;BME280;8384;47.996;7.786;2024-01-25T03:42:01;100156.66;;;9.10;100.00
16544;BME280;8384;47.996;7.786;2024-01-25T03:44:26;100166.50;;;9.18;100.00
16544;BME280;8384;47.996;7.786;2024-01-25T03:46:52;100174.06;;;9.16;100.00
16544;BME280;8384;47.996;7.786;2024-01-25T03:49:17;100159.63;;;9.02;100.00
16544;BME280;8384;47.996;7.786;2024-01-25T03:51:44;100104.63;;;8.66;100.00
16544;BME280;8384;47.996;7.786;2024-01-25T03:54:09;100169.75;;;8.95;100.00
16544;BME280;8384;47.996;7.786;2024-01-25T03:56:34;100181.91;;;8.92;100.00
16544;BME280;8384;47.996;7.786;2024-01-25T03:58:59;100179.44;;;8.77;100.00
16544;BME280;8384;47.996;7.786;2024-01-25T04:01:24;100185.34;;;8.67;100.00
16544;BME280;8384;47.996;7.786;2024-01-25T04:03:50;100184.50;;;8.74;100.00
16544;BME280;8384;47.996;7.786;2024-01-25T04:06:15;100184.91;;;8.70;100.00
16544;BME280;8384;47.996;7.786;2024-01-25T04:08:40;100195.63;;;8.72;100.00
16544;BME280;8384;47.996;7.786;2024-01-25T04:11:06;100194.34;;;8.61;100.00
16544;BME280;8384;47.996;7.786;2024-01-25T04:13:33;100201.72;;;8.54;100.00
16544;BME280;8384;47.996;7.786;2024-01-25T04:15:58;100157.50;;;8.32;100.00
16544;BME280;8384;47.996;7.786;2024-01-25T04:18:24;100201.91;;;8.46;100.00
16544;BME280;8384;47.996;7.786;2024-01-25T04:20:49;100198.16;;;8.40;100.00
16544;BME280;8384;47.996;7.786;2024-01-25T04:23:15;100201.06;;;8.38;100.00
16544;BME280;8384;47.996;7.786;2024-01-25T04:25:41;100157.94;;;8.15;100.00
16544;BME280;8384;47.996;7.786;2024-01-25T04:28:06;100203.81;;;8.45;100.00
16544;BME280;8384;47.996;7.786;2024-01-25T04:30:31;100202.56;;;8.41;100.00
16544;BME280;8384;47.996;7.786;2024-01-25T04:32:57;100172.81;;;8.26;100.00
16544;BME280;8384;47.996;7.786;2024-01-25T04:35:23;100204.22;;;8.35;100.00
16544;BME280;8384;47.996;7.786;2024-01-25T04:37:48;100209.88;;;8.47;100.00
16544;BME280;8384;47.996;7.786;2024-01-25T04:40:13;100214.69;;;8.38;100.00
16544;BME280;8384;47.996;7.786;2024-01-25T04:42:38;100204.00;;;8.44;100.00
16544;BME280;8384;47.996;7.786;2024-01-25T04:45:04;100208.00;;;8.41;100.00
16544;BME280;8384;47.996;7.786;2024-01-25T04:47:29;100212.19;;;8.37;100.00
16544;BME280;8384;47.996;7.786;2024-01-25T04:49:55;100212.59;;;8.34;100.00
16544;BME280;8384;47.996;7.786;2024-01-25T04:52:21;100211.38;;;8.23;100.00
16544;BME280;8384;47.996;7.786;2024-01-25T04:54:46;100223.53;;;8.20;100.00
16544;BME280;8384;47.996;7.786;2024-01-25T04:57:11;100223.53;;;8.20;100.00
16544;BME280;8384;47.996;7.786;2024-01-25T04:59:37;100214.50;;;8.13;100.00
16544;BME280;8384;47.996;7.786;2024-01-25T05:02:02;100231.25;;;8.10;100.00
16544;BME280;8384;47.996;7.786;2024-01-25T05:04:28;100239.44;;;8.17;100.00
16544;BME280;8384;47.996;7.786;2024-01-25T05:06:57;100235.84;;;8.09;100.00
16544;BME280;8384;47.996;7.786;2024-01-25T05:09:22;100244.03;;;8.09;100.00
16544;BME280;8384;47.996;7.786;2024-01-25T05:11:47;100241.75;;;8.06;100.00
16544;BME280;8384;47.996;7.786;2024-01-25T05:14:12;100235.00;;;7.95;100.00
16544;BME280;8384;47.996;7.786;2024-01-25T05:16:38;100246.13;;;8.01;100.00
16544;BME280;8384;47.996;7.786;2024-01-25T05:19:03;100236.84;;;7.81;100.00
16544;BME280;8384;47.996;7.786;2024-01-25T05:21:28;100242.34;;;7.95;100.00
16544;BME280;8384;47.996;7.786;2024-01-25T05:23:53;100260.34;;;8.09;100.00
16544;BME280;8384;47.996;7.786;2024-01-25T05:26:19;100268.75;;;8.08;100.00
16544;BME280;8384;47.996;7.786;2024-01-25T05:28:44;100250.91;;;7.92;100.00
16544;BME280;8384;47.996;7.786;2024-01-25T05:31:10;100272.53;;;8.00;100.00
16544;BME280;8384;47.996;7.786;2024-01-25T05:33:40;100250.47;;;7.81;100.00
16544;BME280;8384;47.996;7.786;2024-01-25T05:36:06;100291.81;;;8.12;100.00
16544;BME280;8384;47.996;7.786;2024-01-25T05:38:31;100274.84;;;8.10;100.00
16544;BME280;8384;47.996;7.786;2024-01-25T05:40:57;100271.25;;;7.96;100.00
16544;BME280;8384;47.996;7.786;2024-01-25T05:43:22;100278.38;;;7.90;100.00
16544;BME280;8384;47.996;7.786;2024-01-25T05:45:48;100276.47;;;7.91;100.00
16544;BME280;8384;47.996;7.786;2024-01-25T05:48:14;100274.59;;;7.98;100.00
16544;BME280;8384;47.996;7.786;2024-01-25T05:50:39;100273.13;;;7.95;100.00
16544;BME280;8384;47.996;7.786;2024-01-25T05:53:04;100244.84;;;7.83;100.00
16544;BME280;8384;47.996;7.786;2024-01-25T05:55:30;100272.75;;;8.05;100.00
16544;BME280;8384;47.996;7.786;2024-01-25T05:57:55;100273.34;;;7.87;100.00
16544;BME280;8384;47.996;7.786;2024-01-25T06:00:20;100281.28;;;7.95;100.00
16544;BME280;8384;47.996;7.786;2024-01-25T06:02:46;100282.97;;;7.90;100.00
16544;BME280;8384;47.996;7.786;2024-01-25T06:05:11;100281.28;;;7.89;100.00
16544;BME280;8384;47.996;7.786;2024-01-25T06:07:37;100280.22;;;7.90;100.00
16544;BME280;8384;47.996;7.786;2024-01-25T06:10:02;100273.78;;;8.04;100.00
16544;BME280;8384;47.996;7.786;2024-01-25T06:12:28;100276.69;;;8.03;100.00
16544;BME280;8384;47.996;7.786;2024-01-25T06:14:54;100267.50;;;8.10;100.00
16544;BME280;8384;47.996;7.786;2024-01-25T06:17:19;100253.69;;;8.12;100.00
16544;BME280;8384;47.996;7.786;2024-01-25T06:19:44;100239.22;;;7.98;100.00
16544;BME280;8384;47.996;7.786;2024-01-25T06:22:10;100275.28;;;8.20;100.00
16544;BME280;8384;47.996;7.786;2024-01-25T06:24:37;100270.66;;;8.21;100.00
16544;BME280;8384;47.996;7.786;2024-01-25T06:27:02;100264.16;;;8.22;100.00
16544;BME280;8384;47.996;7.786;2024-01-25T06:29:28;100259.97;;;8.19;100.00
16544;BME280;8384;47.996;7.786;2024-01-25T06:31:53;100245.50;;;8.05;100.00
16544;BME280;8384;47.996;7.786;2024-01-25T06:34:18;100266.03;;;8.21;100.00
16544;BME280;8384;47.996;7.786;2024-01-25T06:36:44;100264.97;;;8.22;100.00
16544;BME280;8384;47.996;7.786;2024-01-25T06:39:09;100261.22;;;8.23;100.00
16544;BME280;8384;47.996;7.786;2024-01-25T06:41:34;100260.59;;;8.21;100.00
16544;BME280;8384;47.996;7.786;2024-01-25T06:43:59;100263.75;;;8.25;100.00
16544;BME280;8384;47.996;7.786;2024-01-25T06:46:25;100224.31;;;7.87;100.00
16544;BME280;8384;47.996;7.786;2024-01-25T06:48:52;100267.72;;;8.09;100.00
16544;BME280;8384;47.996;7.786;2024-01-25T06:51:17;100238.16;;;7.92;100.00
16544;BME280;8384;47.996;7.786;2024-01-25T06:53:43;100269.38;;;8.17;100.00
16544;BME280;8384;47.996;7.786;2024-01-25T06:56:08;100255.78;;;8.03;100.00
16544;BME280;8384;47.996;7.786;2024-01-25T06:58:33;100260.59;;;8.08;100.00
16544;BME280;8384;47.996;7.786;2024-01-25T07:00:59;100265.63;;;8.18;100.00
16544;BME280;8384;47.996;7.786;2024-01-25T07:03:24;100231.66;;;7.93;100.00
16544;BME280;8384;47.996;7.786;2024-01-25T07:05:50;100257.88;;;8.08;100.00
16544;BME280;8384;47.996;7.786;2024-01-25T07:08:15;100268.56;;;8.16;100.00
16544;BME280;8384;47.996;7.786;2024-01-25T07:10:41;100265.63;;;8.11;100.00
16544;BME280;8384;47.996;7.786;2024-01-25T07:13:06;100228.09;;;7.86;100.00
16544;BME280;8384;47.996;7.786;2024-01-25T07:15:32;100264.13;;;8.02;100.00
16544;BME280;8384;47.996;7.786;2024-01-25T07:17:57;100259.13;;;8.05;100.00
16544;BME280;8384;47.996;7.786;2024-01-25T07:20:22;100245.69;;;7.97;100.00
16544;BME280;8384;47.996;7.786;2024-01-25T07:22:48;100248.66;;;8.02;100.00
16544;BME280;8384;47.996;7.786;2024-01-25T07:25:13;100247.16;;;8.00;100.00
16544;BME280;8384;47.996;7.786;2024-01-25T07:27:38;100250.97;;;8.05;100.00
16544;BME280;8384;47.996;7.786;2024-01-25T07:30:04;100199.13;;;7.58;100.00
16544;BME280;8384;47.996;7.786;2024-01-25T07:32:30;100247.38;;;7.98;100.00
16544;BME280;8384;47.996;7.786;2024-01-25T07:34:55;100264.13;;;8.02;100.00
16544;BME280;8384;47.996;7.786;2024-01-25T07:37:20;100257.41;;;7.98;100.00
16544;BME280;8384;47.996;7.786;2024-01-25T07:39:46;100262.03;;;7.97;100.00
16544;BME280;8384;47.996;7.786;2024-01-25T07:42:11;100224.09;;;7.95;100.00
16544;BME280;8384;47.996;7.786;2024-01-25T07:44:37;100214.28;;;7.94;100.00
16544;BME280;8384;47.996;7.786;2024-01-25T07:47:03;100254.75;;;8.31;100.00
16544;BME280;8384;47.996;7.786;2024-01-25T07:49:29;100235.44;;;8.06;100.00
16544;BME280;8384;47.996;7.786;2024-01-25T07:51:54;100243.63;;;8.26;100.00
16544;BME280;8384;47.996;7.786;2024-01-25T07:54:21;100237.78;;;8.29;100.00
16544;BME280;8384;47.996;7.786;2024-01-25T07:56:47;100242.81;;;8.32;100.00
16544;BME280;8384;47.996;7.786;2024-01-25T07:59:12;100221.19;;;8.04;100.00
16544;BME280;8384;47.996;7.786;2024-01-25T08:01:37;100224.97;;;8.16;100.00
16544;BME280;8384;47.996;7.786;2024-01-25T08:04:03;100241.09;;;8.24;100.00
16544;BME280;8384;47.996;7.786;2024-01-25T08:06:28;100225.19;;;8.15;100.00
16544;BME280;8384;47.996;7.786;2024-01-25T08:08:53;100226.84;;;8.16;100.00
16544;BME280;8384;47.996;7.786;2024-01-25T08:11:19;100258.31;;;8.45;100.00
16544;BME280;8384;47.996;7.786;2024-01-25T08:13:45;100218.28;;;8.32;100.00
16544;BME280;8384;47.996;7.786;2024-01-25T08:16:12;100213.84;;;8.24;100.00
16544;BME280;8384;47.996;7.786;2024-01-25T08:18:38;100205.91;;;8.23;100.00
16544;BME280;8384;47.996;7.786;2024-01-25T08:21:04;100241.31;;;8.36;100.00
16544;BME280;8384;47.996;7.786;2024-01-25T08:23:29;100222.88;;;8.05;100.00
16544;BME280;8384;47.996;7.786;2024-01-25T08:25:54;100243.63;;;8.19;100.00
16544;BME280;8384;47.996;7.786;2024-01-25T08:28:20;100243.41;;;8.14;100.00
16544;BME280;8384;47.996;7.786;2024-01-25T08:30:46;100252.81;;;8.11;100.00
16544;BME280;8384;47.996;7.786;2024-01-25T08:33:13;100257.03;;;8.34;100.00
16544;BME280;8384;47.996;7.786;2024-01-25T08:35:38;100257.66;;;8.36;100.00
16544;BME280;8384;47.996;7.786;2024-01-25T08:38:05;100233.59;;;8.33;100.00
16544;BME280;8384;47.996;7.786;2024-01-25T08:40:31;100202.13;;;8.24;100.00
16544;BME280;8384;47.996;7.786;2024-01-25T08:42:56;100252.00;;;8.72;100.00
16544;BME280;8384;47.996;7.786;2024-01-25T08:45:21;100214.50;;;8.47;100.00
16544;BME280;8384;47.996;7.786;2024-01-25T08:47:47;100236.50;;;8.72;100.00
16544;BME280;8384;47.996;7.786;2024-01-25T08:50:14;100255.53;;;8.92;100.00
16544;BME280;8384;47.996;7.786;2024-01-25T08:52:39;100244.22;;;8.89;100.00
16544;BME280;8384;47.996;7.786;2024-01-25T08:55:06;100260.78;;;8.94;100.00
16544;BME280;8384;47.996;7.786;2024-01-25T08:57:31;100261.00;;;8.99;100.00
16544;BME280;8384;47.996;7.786;2024-01-25T08:59:57;100249.47;;;8.90;100.00
16544;BME280;8384;47.996;7.786;2024-01-25T09:02:24;100226.41;;;8.86;100.00
16544;BME280;8384;47.996;7.786;2024-01-25T09:04:51;100261.56;;;9.14;100.00
16544;BME280;8384;47.996;7.786;2024-01-25T09:07:18;100238.75;;;8.95;100.00
16544;BME280;8384;47.996;7.786;2024-01-25T09:09:44;100243.09;;;9.17;100.00
16544;BME280;8384;47.996;7.786;2024-01-25T09:12:09;100256.06;;;9.35;100.00
16544;BME280;8384;47.996;7.786;2024-01-25T09:14:36;100252.88;;;9.44;100.00
16544;BME280;8384;47.996;7.786;2024-01-25T09:17:01;100222.88;;;9.31;100.00
16544;BME280;8384;47.996;7.786;2024-01-25T09:19:27;100258.16;;;9.33;100.00
16544;BME280;8384;47.996;7.786;2024-01-25T09:21:52;100268.47;;;9.17;100.00
16544;BME280;8384;47.996;7.786;2024-01-25T09:24:17;100212.56;;;8.88;100.00
16544;BME280;8384;47.996;7.786;2024-01-25T09:26:42;100263.66;;;9.19;100.00
16544;BME280;8384;47.996;7.786;2024-01-25T09:29:08;100264.69;;;9.25;100.00
16544;BME280;8384;47.996;7.786;2024-01-25T09:31:33;100273.72;;;9.25;100.00
16544;BME280;8384;47.996;7.786;2024-01-25T09:33:59;100268.09;;;9.13;100.00
16544;BME280;8384;47.996;7.786;2024-01-25T09:36:24;100273.88;;;9.37;100.00
16544;BME280;8384;47.996;7.786;2024-01-25T09:38:49;100276.56;;;9.51;100.00
16544;BME280;8384;47.996;7.786;2024-01-25T09:41:14;100238.47;;;9.24;100.00
16544;BME280;8384;47.996;7.786;2024-01-25T09:43:40;100276.16;;;9.47;100.00
16544;BME280;8384;47.996;7.786;2024-01-25T09:46:07;100278.44;;;9.50;100.00
16544;BME280;8384;47.996;7.786;2024-01-25T09:48:32;100266.09;;;9.41;100.00
16544;BME280;8384;47.996;7.786;2024-01-25T09:50:58;100284.78;;;9.37;100.00
16544;BME280;8384;47.996;7.786;2024-01-25T09:53:24;100247.91;;;9.21;100.00
16544;BME280;8384;47.996;7.786;2024-01-25T09:56:00;100254.03;;;9.10;100.00
16544;BME280;8384;47.996;7.786;2024-01-25T09:58:41;100280.00;;;9.33;100.00
16544;BME280;8384;47.996;7.786;2024-01-25T10:01:14;100237.66;;;9.17;100.00
16544;BME280;8384;47.996;7.786;2024-01-25T10:03:46;100279.03;;;9.59;100.00
16544;BME280;8384;47.996;7.786;2024-01-25T10:06:12;100273.81;;;9.57;100.00
16544;BME280;8384;47.996;7.786;2024-01-25T10:08:38;100244.25;;;9.48;100.00
16544;BME280;8384;47.996;7.786;2024-01-25T10:11:04;100269.31;;;9.70;100.00
16544;BME280;8384;47.996;7.786;2024-01-25T10:13:29;100280.81;;;9.85;100.00
16544;BME280;8384;47.996;7.786;2024-01-25T10:15:55;100265.88;;;9.88;100.00
16544;BME280;8384;47.996;7.786;2024-01-25T10:18:25;100284.00;;;10.14;100.00
16544;BME280;8384;47.996;7.786;2024-01-25T10:20:52;100282.53;;;10.12;100.00
16544;BME280;8384;47.996;7.786;2024-01-25T10:23:17;100277.53;;;10.34;100.00
16544;BME280;8384;47.996;7.786;2024-01-25T10:25:43;100277.03;;;10.18;100.00
16544;BME280;8384;47.996;7.786;2024-01-25T10:28:08;100277.28;;;10.10;100.00
16544;BME280;8384;47.996;7.786;2024-01-25T10:30:35;100278.59;;;10.33;100.00
16544;BME280;8384;47.996;7.786;2024-01-25T10:33:02;100278.41;;;10.28;100.00
16544;BME280;8384;47.996;7.786;2024-01-25T10:35:27;100280.59;;;10.19;100.00
16544;BME280;8384;47.996;7.786;2024-01-25T10:37:54;100238.38;;;9.83;100.00
16544;BME280;8384;47.996;7.786;2024-01-25T10:40:20;100285.97;;;10.00;100.00
16544;BME280;8384;47.996;7.786;2024-01-25T10:42:46;100263.41;;;9.80;100.00
16544;BME280;8384;47.996;7.786;2024-01-25T10:45:12;100274.94;;;9.82;100.00
16544;BME280;8384;47.996;7.786;2024-01-25T10:47:38;100242.44;;;9.67;100.00
16544;BME280;8384;47.996;7.786;2024-01-25T10:50:09;100234.50;;;9.65;100.00
16544;BME280;8384;47.996;7.786;2024-01-25T10:52:35;100253.19;;;10.00;100.00
16544;BME280;8384;47.996;7.786;2024-01-25T10:55:03;100256.84;;;10.19;100.00
16544;BME280;8384;47.996;7.786;2024-01-25T11:00:05;100239.03;;;10.35;100.00
16544;BME280;8384;47.996;7.786;2024-01-25T11:02:34;100246.56;;;10.47;100.00
16544;BME280;8384;47.996;7.786;2024-01-25T11:05:00;100223.16;;;10.26;100.00
16544;BME280;8384;47.996;7.786;2024-01-25T11:07:26;100242.84;;;10.41;100.00
16544;BME280;8384;47.996;7.786;2024-01-25T11:09:51;100234.94;;;10.26;100.00
16544;BME280;8384;47.996;7.786;2024-01-25T11:12:19;100232.84;;;10.21;100.00
16544;BME280;8384;47.996;7.786;2024-01-25T11:14:44;100218.53;;;10.26;100.00
16544;BME280;8384;47.996;7.786;2024-01-25T11:17:19;100237.31;;;10.48;100.00
16544;BME280;8384;47.996;7.786;2024-01-25T11:19:46;100221.50;;;10.50;100.00
16544;BME280;8384;47.996;7.786;2024-01-25T11:22:12;100210.66;;;10.43;100.00
16544;BME280;8384;47.996;7.786;2024-01-25T11:24:38;100204.69;;;10.46;100.00
16544;BME280;8384;47.996;7.786;2024-01-25T11:27:05;100214.03;;;10.64;100.00
16544;BME280;8384;47.996;7.786;2024-01-25T11:29:30;100215.53;;;10.78;100.00
16544;BME280;8384;47.996;7.786;2024-01-25T11:31:55;100183.94;;;10.64;100.00
16544;BME280;8384;47.996;7.786;2024-01-25T11:34:22;100188.09;;;10.67;100.00
16544;BME280;8384;47.996;7.786;2024-01-25T11:36:48;100206.69;;;10.83;100.00
16544;BME280;8384;47.996;7.786;2024-01-25T11:39:15;100220.84;;;10.73;100.00
16544;BME280;8384;47.996;7.786;2024-01-25T11:41:45;100192.44;;;10.56;100.00
16544;BME280;8384;47.996;7.786;2024-01-25T11:44:11;100208.09;;;10.67;100.00
16544;BME280;8384;47.996;7.786;2024-01-25T11:46:37;100183.00;;;10.52;100.00
16544;BME280;8384;47.996;7.786;2024-01-25T11:49:02;100176.63;;;10.58;100.00
16544;BME280;8384;47.996;7.786;2024-01-25T11:51:27;100177.69;;;10.75;100.00
16544;BME280;8384;47.996;7.786;2024-01-25T11:53:53;100197.53;;;10.71;100.00
16544;BME280;8384;47.996;7.786;2024-01-25T11:56:21;100181.38;;;10.69;100.00
16544;BME280;8384;47.996;7.786;2024-01-25T11:58:48;100173.78;;;10.90;100.00
16544;BME280;8384;47.996;7.786;2024-01-25T12:01:14;100156.75;;;10.69;100.00
16544;BME280;8384;47.996;7.786;2024-01-25T12:03:40;100186.00;;;10.87;100.00
16544;BME280;8384;47.996;7.786;2024-01-25T12:06:06;100185.53;;;10.90;100.00
16544;BME280;8384;47.996;7.786;2024-01-25T12:08:34;100183.03;;;10.89;100.00
16544;BME280;8384;47.996;7.786;2024-01-25T12:11:08;100180.47;;;10.94;100.00
16544;BME280;8384;47.996;7.786;2024-01-25T12:13:34;100178.34;;;10.96;100.00
16544;BME280;8384;47.996;7.786;2024-01-25T12:16:03;100170.75;;;10.98;100.00
16544;BME280;8384;47.996;7.786;2024-01-25T12:18:29;100165.38;;;11.03;100.00
16544;BME280;8384;47.996;7.786;2024-01-25T12:20:55;100158.19;;;11.09;100.00
16544;BME280;8384;47.996;7.786;2024-01-25T12:23:20;100165.28;;;11.29;100.00
16544;BME280;8384;47.996;7.786;2024-01-25T12:25:45;100155.88;;;11.24;100.00
16544;BME280;8384;47.996;7.786;2024-01-25T12:28:10;100157.19;;;11.22;100.00
16544;BME280;8384;47.996;7.786;2024-01-25T12:30:36;100149.63;;;11.17;100.00
16544;BME280;8384;47.996;7.786;2024-01-25T12:33:01;100144.59;;;11.33;100.00
16544;BME280;8384;47.996;7.786;2024-01-25T12:35:26;100133.44;;;11.46;100.00
16544;BME280;8384;47.996;7.786;2024-01-25T12:37:52;100146.41;;;11.39;100.00
16544;BME280;8384;47.996;7.786;2024-01-25T12:40:17;100135.00;;;11.54;100.00
16544;BME280;8384;47.996;7.786;2024-01-25T12:42:42;100100.56;;;11.34;100.00
16544;BME280;8384;47.996;7.786;2024-01-25T12:45:08;100124.22;;;11.71;100.00
16544;BME280;8384;47.996;7.786;2024-01-25T12:47:33;100094.47;;;11.63;100.00
16544;BME280;8384;47.996;7.786;2024-01-25T12:49:59;100115.44;;;11.81;100.00
16544;BME280;8384;47.996;7.786;2024-01-25T12:52:24;100119.00;;;11.39;100.00